sensor_id;sensor_type;location;lat;lon;timestamp;P1;durP1;ratioP1;P2;durP2;ratioP2
78838;SDS011;68405;47.190;27.558;2023-05-14T00:00:15;12.90;;;8.10;;
78838;SDS011;68405;47.190;27.558;2023-05-14T00:03:05;14.40;;;8.50;;
78838;SDS011;68405;47.190;27.558;2023-05-14T00:05:33;14.80;;;8.70;;
78838;SDS011;68405;47.190;27.558;2023-05-14T00:08:02;17.00;;;9.10;;
78838;SDS011;68405;47.190;27.558;2023-05-14T00:10:31;16.50;;;10.00;;
78838;SDS011;68405;47.190;27.558;2023-05-14T00:13:00;13.80;;;8.30;;
78838;SDS011;68405;47.190;27.558;2023-05-14T00:15:29;13.60;;;7.70;;
78838;SDS011;68405;47.190;27.558;2023-05-14T00:17:57;14.30;;;7.60;;
78838;SDS011;68405;47.190;27.558;2023-05-14T00:20:26;10.60;;;6.90;;
78838;SDS011;68405;47.190;27.558;2023-05-14T00:22:55;10.90;;;5.90;;
78838;SDS011;68405;47.190;27.558;2023-05-14T00:25:23;9.50;;;5.80;;
78838;SDS011;68405;47.190;27.558;2023-05-14T00:27:52;10.50;;;6.00;;
78838;SDS011;68405;47.190;27.558;2023-05-14T00:30:21;7.90;;;5.70;;
78838;SDS011;68405;47.190;27.558;2023-05-14T00:32:50;10.10;;;5.90;;
78838;SDS011;68405;47.190;27.558;2023-05-14T00:35:18;8.80;;;5.10;;
78838;SDS011;68405;47.190;27.558;2023-05-14T00:37:47;9.60;;;5.50;;
78838;SDS011;68405;47.190;27.558;2023-05-14T00:40:17;8.60;;;5.60;;
78838;SDS011;68405;47.190;27.558;2023-05-14T00:42:48;10.10;;;5.80;;
78838;SDS011;68405;47.190;27.558;2023-05-14T00:45:17;8.00;;;5.50;;
78838;SDS011;68405;47.190;27.558;2023-05-14T00:47:46;8.80;;;5.90;;
78838;SDS011;68405;47.190;27.558;2023-05-14T00:50:15;9.90;;;5.10;;
78838;SDS011;68405;47.190;27.558;2023-05-14T00:52:45;10.80;;;5.90;;
78838;SDS011;68405;47.190;27.558;2023-05-14T00:55:15;8.70;;;5.40;;
78838;SDS011;68405;47.190;27.558;2023-05-14T00:57:45;10.80;;;5.80;;
78838;SDS011;68405;47.190;27.558;2023-05-14T01:00:14;11.50;;;5.60;;
78838;SDS011;68405;47.190;27.558;2023-05-14T01:02:44;8.10;;;6.10;;
78838;SDS011;68405;47.190;27.558;2023-05-14T01:05:12;9.00;;;5.50;;
78838;SDS011;68405;47.190;27.558;2023-05-14T01:07:45;10.10;;;6.10;;
78838;SDS011;68405;47.190;27.558;2023-05-14T01:10:26;9.40;;;6.30;;
78838;SDS011;68405;47.190;27.558;2023-05-14T01:12:59;9.40;;;5.30;;
78838;SDS011;68405;47.190;27.558;2023-05-14T01:15:35;11.20;;;5.50;;
78838;SDS011;68405;47.190;27.558;2023-05-14T01:18:06;13.80;;;6.70;;
78838;SDS011;68405;47.190;27.558;2023-05-14T01:20:36;8.40;;;5.80;;
78838;SDS011;68405;47.190;27.558;2023-05-14T01:23:05;10.70;;;5.20;;
78838;SDS011;68405;47.190;27.558;2023-05-14T01:25:34;10.70;;;6.30;;
78838;SDS011;68405;47.190;27.558;2023-05-14T01:28:05;12.40;;;7.90;;
78838;SDS011;68405;47.190;27.558;2023-05-14T01:30:40;11.30;;;7.50;;
78838;SDS011;68405;47.190;27.558;2023-05-14T01:33:13;12.80;;;8.10;;
78838;SDS011;68405;47.190;27.558;2023-05-14T01:35:45;16.40;;;9.70;;
78838;SDS011;68405;47.190;27.558;2023-05-14T01:38:15;19.20;;;11.10;;
78838;SDS011;68405;47.190;27.558;2023-05-14T01:40:46;18.50;;;10.90;;
78838;SDS011;68405;47.190;27.558;2023-05-14T01:43:16;16.30;;;9.90;;
78838;SDS011;68405;47.190;27.558;2023-05-14T01:45:47;16.60;;;10.80;;
78838;SDS011;68405;47.190;27.558;2023-05-14T01:48:16;18.80;;;12.00;;
78838;SDS011;68405;47.190;27.558;2023-05-14T01:50:45;18.20;;;11.80;;
78838;SDS011;68405;47.190;27.558;2023-05-14T01:53:13;17.90;;;10.80;;
78838;SDS011;68405;47.190;27.558;2023-05-14T01:55:42;15.30;;;10.90;;
78838;SDS011;68405;47.190;27.558;2023-05-14T01:58:11;17.00;;;10.40;;
78838;SDS011;68405;47.190;27.558;2023-05-14T02:00:40;21.40;;;9.90;;
78838;SDS011;68405;47.190;27.558;2023-05-14T02:03:08;14.90;;;11.10;;
78838;SDS011;68405;47.190;27.558;2023-05-14T02:05:37;15.70;;;11.00;;
78838;SDS011;68405;47.190;27.558;2023-05-14T02:08:06;18.40;;;11.40;;
78838;SDS011;68405;47.190;27.558;2023-05-14T02:10:34;20.50;;;12.00;;
78838;SDS011;68405;47.190;27.558;2023-05-14T02:13:03;16.90;;;12.00;;
78838;SDS011;68405;47.190;27.558;2023-05-14T02:15:32;18.00;;;11.50;;
78838;SDS011;68405;47.190;27.558;2023-05-14T02:20:28;17.70;;;10.10;;
78838;SDS011;68405;47.190;27.558;2023-05-14T02:22:57;21.00;;;11.90;;
78838;SDS011;68405;47.190;27.558;2023-05-14T02:25:25;17.90;;;11.90;;
78838;SDS011;68405;47.190;27.558;2023-05-14T02:27:54;20.50;;;12.10;;
78838;SDS011;68405;47.190;27.558;2023-05-14T02:30:23;21.50;;;12.70;;
78838;SDS011;68405;47.190;27.558;2023-05-14T02:32:52;17.50;;;11.50;;
78838;SDS011;68405;47.190;27.558;2023-05-14T02:35:21;19.20;;;12.30;;
78838;SDS011;68405;47.190;27.558;2023-05-14T02:37:50;19.00;;;11.80;;
78838;SDS011;68405;47.190;27.558;2023-05-14T02:40:18;21.80;;;12.00;;
78838;SDS011;68405;47.190;27.558;2023-05-14T02:42:47;17.50;;;11.10;;
78838;SDS011;68405;47.190;27.558;2023-05-14T02:45:16;19.90;;;11.00;;
78838;SDS011;68405;47.190;27.558;2023-05-14T02:47:45;19.40;;;12.30;;
78838;SDS011;68405;47.190;27.558;2023-05-14T02:50:14;19.40;;;12.30;;
78838;SDS011;68405;47.190;27.558;2023-05-14T02:52:43;15.20;;;10.40;;
78838;SDS011;68405;47.190;27.558;2023-05-14T02:55:12;16.10;;;10.80;;
78838;SDS011;68405;47.190;27.558;2023-05-14T02:57:41;21.00;;;11.90;;
78838;SDS011;68405;47.190;27.558;2023-05-14T03:00:11;20.40;;;12.50;;
78838;SDS011;68405;47.190;27.558;2023-05-14T03:02:40;18.80;;;12.50;;
78838;SDS011;68405;47.190;27.558;2023-05-14T03:05:10;20.60;;;12.00;;
78838;SDS011;68405;47.190;27.558;2023-05-14T03:07:39;16.80;;;9.50;;
78838;SDS011;68405;47.190;27.558;2023-05-14T03:10:09;11.20;;;7.50;;
78838;SDS011;68405;47.190;27.558;2023-05-14T03:12:38;8.40;;;6.20;;
78838;SDS011;68405;47.190;27.558;2023-05-14T03:15:08;11.40;;;6.90;;
78838;SDS011;68405;47.190;27.558;2023-05-14T03:17:38;11.20;;;6.90;;
78838;SDS011;68405;47.190;27.558;2023-05-14T03:20:07;10.50;;;7.90;;
78838;SDS011;68405;47.190;27.558;2023-05-14T03:22:37;12.60;;;7.60;;
78838;SDS011;68405;47.190;27.558;2023-05-14T03:25:07;14.00;;;8.30;;
78838;SDS011;68405;47.190;27.558;2023-05-14T03:27:36;14.80;;;8.70;;
78838;SDS011;68405;47.190;27.558;2023-05-14T03:30:06;17.20;;;10.20;;
78838;SDS011;68405;47.190;27.558;2023-05-14T03:32:37;17.20;;;9.40;;
78838;SDS011;68405;47.190;27.558;2023-05-14T03:35:07;15.90;;;10.00;;
78838;SDS011;68405;47.190;27.558;2023-05-14T03:37:36;17.50;;;9.50;;
78838;SDS011;68405;47.190;27.558;2023-05-14T03:40:07;13.10;;;9.40;;
78838;SDS011;68405;47.190;27.558;2023-05-14T03:42:36;15.80;;;9.60;;
78838;SDS011;68405;47.190;27.558;2023-05-14T03:45:07;14.20;;;9.70;;
78838;SDS011;68405;47.190;27.558;2023-05-14T03:47:37;15.90;;;10.00;;
78838;SDS011;68405;47.190;27.558;2023-05-14T03:50:07;14.50;;;9.60;;
78838;SDS011;68405;47.190;27.558;2023-05-14T03:52:36;15.40;;;10.30;;
78838;SDS011;68405;47.190;27.558;2023-05-14T03:55:06;14.60;;;10.40;;
78838;SDS011;68405;47.190;27.558;2023-05-14T03:57:35;16.30;;;10.30;;
78838;SDS011;68405;47.190;27.558;2023-05-14T04:00:06;15.30;;;10.20;;
78838;SDS011;68405;47.190;27.558;2023-05-14T04:02:36;11.90;;;9.30;;
78838;SDS011;68405;47.190;27.558;2023-05-14T04:05:05;13.40;;;9.80;;
78838;SDS011;68405;47.190;27.558;2023-05-14T04:07:34;12.90;;;8.90;;
78838;SDS011;68405;47.190;27.558;2023-05-14T04:10:04;11.70;;;7.90;;
78838;SDS011;68405;47.190;27.558;2023-05-14T04:12:35;14.10;;;8.80;;
78838;SDS011;68405;47.190;27.558;2023-05-14T04:27:43;10.40;;;7.90;;
78838;SDS011;68405;47.190;27.558;2023-05-14T04:30:15;9.50;;;7.70;;
78838;SDS011;68405;47.190;27.558;2023-05-14T04:32:46;11.50;;;7.10;;
78838;SDS011;68405;47.190;27.558;2023-05-14T04:35:18;8.60;;;6.60;;
78838;SDS011;68405;47.190;27.558;2023-05-14T04:37:50;9.00;;;7.40;;
78838;SDS011;68405;47.190;27.558;2023-05-14T04:40:22;11.20;;;7.80;;
78838;SDS011;68405;47.190;27.558;2023-05-14T04:42:54;10.20;;;7.30;;
78838;SDS011;68405;47.190;27.558;2023-05-14T04:45:25;10.20;;;7.30;;
78838;SDS011;68405;47.190;27.558;2023-05-14T04:47:58;10.00;;;7.30;;
78838;SDS011;68405;47.190;27.558;2023-05-14T04:50:29;10.80;;;7.30;;
78838;SDS011;68405;47.190;27.558;2023-05-14T04:53:01;11.30;;;6.90;;
78838;SDS011;68405;47.190;27.558;2023-05-14T04:55:33;7.80;;;6.90;;
78838;SDS011;68405;47.190;27.558;2023-05-14T04:58:04;10.60;;;7.60;;
78838;SDS011;68405;47.190;27.558;2023-05-14T05:00:36;11.60;;;7.10;;
78838;SDS011;68405;47.190;27.558;2023-05-14T05:03:08;10.20;;;7.20;;
78838;SDS011;68405;47.190;27.558;2023-05-14T05:05:40;10.10;;;6.90;;
78838;SDS011;68405;47.190;27.558;2023-05-14T05:08:11;8.10;;;6.60;;
78838;SDS011;68405;47.190;27.558;2023-05-14T05:10:43;8.40;;;6.90;;
78838;SDS011;68405;47.190;27.558;2023-05-14T05:13:15;8.00;;;6.30;;
78838;SDS011;68405;47.190;27.558;2023-05-14T05:15:46;8.40;;;6.60;;
78838;SDS011;68405;47.190;27.558;2023-05-14T05:18:18;7.20;;;5.70;;
78838;SDS011;68405;47.190;27.558;2023-05-14T05:20:50;8.10;;;6.20;;
78838;SDS011;68405;47.190;27.558;2023-05-14T05:23:21;7.10;;;6.20;;
78838;SDS011;68405;47.190;27.558;2023-05-14T05:25:53;7.80;;;5.90;;
78838;SDS011;68405;47.190;27.558;2023-05-14T05:28:25;7.50;;;6.50;;
78838;SDS011;68405;47.190;27.558;2023-05-14T05:30:56;9.00;;;5.80;;
78838;SDS011;68405;47.190;27.558;2023-05-14T05:33:28;7.80;;;6.00;;
78838;SDS011;68405;47.190;27.558;2023-05-14T05:36:00;6.10;;;5.30;;
78838;SDS011;68405;47.190;27.558;2023-05-14T05:38:32;6.80;;;5.20;;
78838;SDS011;68405;47.190;27.558;2023-05-14T05:41:03;6.90;;;5.40;;
78838;SDS011;68405;47.190;27.558;2023-05-14T05:43:35;6.30;;;5.00;;
78838;SDS011;68405;47.190;27.558;2023-05-14T05:46:07;6.10;;;4.50;;
78838;SDS011;68405;47.190;27.558;2023-05-14T05:48:38;7.10;;;5.50;;
78838;SDS011;68405;47.190;27.558;2023-05-14T05:51:10;5.50;;;4.50;;
78838;SDS011;68405;47.190;27.558;2023-05-14T05:53:42;5.90;;;4.50;;
78838;SDS011;68405;47.190;27.558;2023-05-14T05:56:13;7.00;;;4.60;;
78838;SDS011;68405;47.190;27.558;2023-05-14T05:58:45;7.70;;;5.00;;
78838;SDS011;68405;47.190;27.558;2023-05-14T06:01:17;7.10;;;4.80;;
78838;SDS011;68405;47.190;27.558;2023-05-14T06:03:48;5.60;;;4.70;;
78838;SDS011;68405;47.190;27.558;2023-05-14T06:06:20;7.60;;;4.40;;
78838;SDS011;68405;47.190;27.558;2023-05-14T06:08:51;5.70;;;3.90;;
78838;SDS011;68405;47.190;27.558;2023-05-14T06:11:23;5.60;;;4.40;;
78838;SDS011;68405;47.190;27.558;2023-05-14T06:16:25;5.50;;;4.10;;
78838;SDS011;68405;47.190;27.558;2023-05-14T06:18:57;4.90;;;3.90;;
78838;SDS011;68405;47.190;27.558;2023-05-14T06:21:29;5.70;;;3.90;;
78838;SDS011;68405;47.190;27.558;2023-05-14T06:24:00;6.10;;;4.00;;
78838;SDS011;68405;47.190;27.558;2023-05-14T06:26:32;5.10;;;4.60;;
78838;SDS011;68405;47.190;27.558;2023-05-14T06:29:03;5.30;;;4.80;;
78838;SDS011;68405;47.190;27.558;2023-05-14T06:31:35;4.60;;;4.20;;
78838;SDS011;68405;47.190;27.558;2023-05-14T06:34:06;4.80;;;3.90;;
78838;SDS011;68405;47.190;27.558;2023-05-14T06:36:38;4.30;;;3.60;;
78838;SDS011;68405;47.190;27.558;2023-05-14T06:39:09;4.60;;;3.80;;
78838;SDS011;68405;47.190;27.558;2023-05-14T06:41:41;4.70;;;3.90;;
78838;SDS011;68405;47.190;27.558;2023-05-14T06:44:12;6.20;;;4.00;;
78838;SDS011;68405;47.190;27.558;2023-05-14T06:46:44;4.80;;;3.60;;
78838;SDS011;68405;47.190;27.558;2023-05-14T06:49:16;5.10;;;4.00;;
78838;SDS011;68405;47.190;27.558;2023-05-14T06:54:18;6.50;;;3.80;;
78838;SDS011;68405;47.190;27.558;2023-05-14T06:56:51;4.80;;;3.90;;
78838;SDS011;68405;47.190;27.558;2023-05-14T06:59:22;5.60;;;4.40;;
78838;SDS011;68405;47.190;27.558;2023-05-14T07:01:54;4.00;;;3.60;;
78838;SDS011;68405;47.190;27.558;2023-05-14T07:04:27;5.80;;;4.00;;
78838;SDS011;68405;47.190;27.558;2023-05-14T07:06:58;5.10;;;4.00;;
78838;SDS011;68405;47.190;27.558;2023-05-14T07:09:30;5.40;;;3.80;;
78838;SDS011;68405;47.190;27.558;2023-05-14T07:12:01;5.50;;;3.90;;
78838;SDS011;68405;47.190;27.558;2023-05-14T07:14:34;6.80;;;3.70;;
78838;SDS011;68405;47.190;27.558;2023-05-14T07:17:06;4.80;;;4.10;;
78838;SDS011;68405;47.190;27.558;2023-05-14T07:19:38;4.20;;;3.60;;
78838;SDS011;68405;47.190;27.558;2023-05-14T07:22:09;4.90;;;3.80;;
78838;SDS011;68405;47.190;27.558;2023-05-14T07:24:41;6.50;;;4.20;;
78838;SDS011;68405;47.190;27.558;2023-05-14T07:27:15;4.30;;;2.80;;
78838;SDS011;68405;47.190;27.558;2023-05-14T07:29:47;4.80;;;3.60;;
78838;SDS011;68405;47.190;27.558;2023-05-14T07:32:19;3.10;;;2.80;;
78838;SDS011;68405;47.190;27.558;2023-05-14T07:34:52;5.50;;;3.00;;
78838;SDS011;68405;47.190;27.558;2023-05-14T07:37:23;3.70;;;2.40;;
78838;SDS011;68405;47.190;27.558;2023-05-14T07:39:55;5.80;;;2.50;;
78838;SDS011;68405;47.190;27.558;2023-05-14T07:42:27;3.40;;;2.90;;
78838;SDS011;68405;47.190;27.558;2023-05-14T07:44:58;6.20;;;3.10;;
78838;SDS011;68405;47.190;27.558;2023-05-14T07:47:30;3.10;;;2.70;;
78838;SDS011;68405;47.190;27.558;2023-05-14T07:50:02;3.60;;;2.80;;
78838;SDS011;68405;47.190;27.558;2023-05-14T07:55:05;6.70;;;3.40;;
78838;SDS011;68405;47.190;27.558;2023-05-14T07:57:38;4.60;;;3.10;;
78838;SDS011;68405;47.190;27.558;2023-05-14T08:00:10;5.40;;;3.00;;
78838;SDS011;68405;47.190;27.558;2023-05-14T08:02:43;3.60;;;2.60;;
78838;SDS011;68405;47.190;27.558;2023-05-14T08:05:15;5.10;;;3.10;;
78838;SDS011;68405;47.190;27.558;2023-05-14T08:07:47;4.60;;;2.40;;
78838;SDS011;68405;47.190;27.558;2023-05-14T08:10:19;4.90;;;2.90;;
78838;SDS011;68405;47.190;27.558;2023-05-14T08:12:50;5.10;;;2.80;;
78838;SDS011;68405;47.190;27.558;2023-05-14T08:15:22;6.40;;;3.20;;
78838;SDS011;68405;47.190;27.558;2023-05-14T08:17:54;3.80;;;2.80;;
78838;SDS011;68405;47.190;27.558;2023-05-14T08:20:31;3.10;;;2.50;;
78838;SDS011;68405;47.190;27.558;2023-05-14T08:23:02;5.20;;;2.70;;
78838;SDS011;68405;47.190;27.558;2023-05-14T08:25:34;4.20;;;3.00;;
78838;SDS011;68405;47.190;27.558;2023-05-14T08:28:06;6.20;;;3.20;;
78838;SDS011;68405;47.190;27.558;2023-05-14T08:30:37;8.30;;;3.10;;
78838;SDS011;68405;47.190;27.558;2023-05-14T08:33:09;4.90;;;3.50;;
78838;SDS011;68405;47.190;27.558;2023-05-14T08:35:40;4.00;;;2.80;;
78838;SDS011;68405;47.190;27.558;2023-05-14T08:38:12;5.40;;;3.10;;
78838;SDS011;68405;47.190;27.558;2023-05-14T08:40:47;4.70;;;2.30;;
78838;SDS011;68405;47.190;27.558;2023-05-14T08:43:24;3.20;;;2.50;;
78838;SDS011;68405;47.190;27.558;2023-05-14T08:45:59;4.50;;;2.70;;
78838;SDS011;68405;47.190;27.558;2023-05-14T08:48:34;4.90;;;2.50;;
78838;SDS011;68405;47.190;27.558;2023-05-14T08:51:09;4.20;;;2.50;;
78838;SDS011;68405;47.190;27.558;2023-05-14T08:53:41;4.90;;;2.90;;
78838;SDS011;68405;47.190;27.558;2023-05-14T08:56:12;5.10;;;2.40;;
78838;SDS011;68405;47.190;27.558;2023-05-14T08:58:46;3.70;;;2.90;;
78838;SDS011;68405;47.190;27.558;2023-05-14T09:01:18;5.90;;;3.00;;
78838;SDS011;68405;47.190;27.558;2023-05-14T09:03:50;4.40;;;2.50;;
78838;SDS011;68405;47.190;27.558;2023-05-14T09:06:23;6.00;;;2.80;;
78838;SDS011;68405;47.190;27.558;2023-05-14T09:08:55;2.80;;;2.50;;
78838;SDS011;68405;47.190;27.558;2023-05-14T09:11:27;3.10;;;2.40;;
78838;SDS011;68405;47.190;27.558;2023-05-14T09:13:58;3.20;;;2.10;;
78838;SDS011;68405;47.190;27.558;2023-05-14T09:16:30;3.90;;;1.80;;
78838;SDS011;68405;47.190;27.558;2023-05-14T09:19:04;3.40;;;2.50;;
78838;SDS011;68405;47.190;27.558;2023-05-14T09:21:35;5.00;;;2.30;;
78838;SDS011;68405;47.190;27.558;2023-05-14T09:24:08;4.90;;;2.60;;
78838;SDS011;68405;47.190;27.558;2023-05-14T09:26:50;4.60;;;2.50;;
78838;SDS011;68405;47.190;27.558;2023-05-14T09:29:24;5.10;;;2.20;;
78838;SDS011;68405;47.190;27.558;2023-05-14T09:31:57;3.10;;;1.90;;
78838;SDS011;68405;47.190;27.558;2023-05-14T09:34:33;6.20;;;2.50;;
78838;SDS011;68405;47.190;27.558;2023-05-14T09:37:06;3.40;;;2.20;;
78838;SDS011;68405;47.190;27.558;2023-05-14T09:39:38;4.10;;;2.00;;
78838;SDS011;68405;47.190;27.558;2023-05-14T09:42:10;4.90;;;2.10;;
78838;SDS011;68405;47.190;27.558;2023-05-14T09:44:42;4.30;;;1.90;;
78838;SDS011;68405;47.190;27.558;2023-05-14T09:47:15;3.60;;;1.80;;
78838;SDS011;68405;47.190;27.558;2023-05-14T09:49:48;3.60;;;2.40;;
78838;SDS011;68405;47.190;27.558;2023-05-14T09:52:21;6.20;;;2.90;;
78838;SDS011;68405;47.190;27.558;2023-05-14T09:54:54;2.80;;;2.20;;
78838;SDS011;68405;47.190;27.558;2023-05-14T09:57:25;4.60;;;2.30;;
78838;SDS011;68405;47.190;27.558;2023-05-14T09:59:57;4.90;;;2.30;;
78838;SDS011;68405;47.190;27.558;2023-05-14T10:02:32;3.00;;;2.50;;
78838;SDS011;68405;47.190;27.558;2023-05-14T10:07:39;4.80;;;2.70;;
78838;SDS011;68405;47.190;27.558;2023-05-14T10:10:17;4.70;;;2.80;;
78838;SDS011;68405;47.190;27.558;2023-05-14T10:12:51;4.30;;;2.90;;
78838;SDS011;68405;47.190;27.558;2023-05-14T10:15:28;3.60;;;3.30;;
78838;SDS011;68405;47.190;27.558;2023-05-14T10:18:03;3.80;;;2.70;;
78838;SDS011;68405;47.190;27.558;2023-05-14T10:20:38;3.70;;;2.70;;
78838;SDS011;68405;47.190;27.558;2023-05-14T10:23:10;3.00;;;2.70;;
78838;SDS011;68405;47.190;27.558;2023-05-14T10:25:42;3.10;;;2.50;;
78838;SDS011;68405;47.190;27.558;2023-05-14T10:28:14;6.90;;;3.10;;
78838;SDS011;68405;47.190;27.558;2023-05-14T10:30:46;6.20;;;3.10;;
78838;SDS011;68405;47.190;27.558;2023-05-14T10:33:19;6.40;;;3.10;;
78838;SDS011;68405;47.190;27.558;2023-05-14T10:35:53;4.40;;;3.30;;
78838;SDS011;68405;47.190;27.558;2023-05-14T10:38:26;4.00;;;2.60;;
78838;SDS011;68405;47.190;27.558;2023-05-14T10:41:00;3.20;;;2.50;;
78838;SDS011;68405;47.190;27.558;2023-05-14T10:43:34;4.10;;;3.00;;
78838;SDS011;68405;47.190;27.558;2023-05-14T10:46:07;7.30;;;3.40;;
78838;SDS011;68405;47.190;27.558;2023-05-14T10:48:41;5.80;;;3.50;;
78838;SDS011;68405;47.190;27.558;2023-05-14T10:53:44;5.00;;;3.80;;
78838;SDS011;68405;47.190;27.558;2023-05-14T10:56:16;4.80;;;3.30;;
78838;SDS011;68405;47.190;27.558;2023-05-14T10:58:49;3.50;;;2.80;;
78838;SDS011;68405;47.190;27.558;2023-05-14T11:01:22;5.60;;;3.40;;
78838;SDS011;68405;47.190;27.558;2023-05-14T11:03:56;5.20;;;3.30;;
78838;SDS011;68405;47.190;27.558;2023-05-14T11:06:28;4.90;;;3.40;;
78838;SDS011;68405;47.190;27.558;2023-05-14T11:09:01;4.70;;;3.00;;
78838;SDS011;68405;47.190;27.558;2023-05-14T11:11:33;5.60;;;3.10;;
78838;SDS011;68405;47.190;27.558;2023-05-14T11:14:05;4.90;;;3.50;;
78838;SDS011;68405;47.190;27.558;2023-05-14T11:16:37;4.20;;;2.90;;
78838;SDS011;68405;47.190;27.558;2023-05-14T11:19:09;5.70;;;2.80;;
78838;SDS011;68405;47.190;27.558;2023-05-14T11:21:41;3.60;;;2.40;;
78838;SDS011;68405;47.190;27.558;2023-05-14T11:24:13;4.90;;;2.80;;
78838;SDS011;68405;47.190;27.558;2023-05-14T11:26:45;5.00;;;2.90;;
78838;SDS011;68405;47.190;27.558;2023-05-14T11:29:17;6.00;;;2.70;;
78838;SDS011;68405;47.190;27.558;2023-05-14T11:31:49;6.00;;;3.00;;
78838;SDS011;68405;47.190;27.558;2023-05-14T11:34:21;4.90;;;2.30;;
78838;SDS011;68405;47.190;27.558;2023-05-14T11:36:52;6.30;;;3.20;;
78838;SDS011;68405;47.190;27.558;2023-05-14T11:39:24;4.40;;;2.90;;
78838;SDS011;68405;47.190;27.558;2023-05-14T11:41:56;3.90;;;2.70;;
78838;SDS011;68405;47.190;27.558;2023-05-14T11:44:28;3.80;;;3.00;;
78838;SDS011;68405;47.190;27.558;2023-05-14T11:47:00;5.30;;;2.60;;
78838;SDS011;68405;47.190;27.558;2023-05-14T11:49:32;7.70;;;2.60;;
78838;SDS011;68405;47.190;27.558;2023-05-14T11:52:06;4.80;;;2.80;;
78838;SDS011;68405;47.190;27.558;2023-05-14T11:54:41;5.40;;;2.60;;
78838;SDS011;68405;47.190;27.558;2023-05-14T11:57:14;3.30;;;2.60;;
78838;SDS011;68405;47.190;27.558;2023-05-14T12:02:17;4.80;;;2.70;;
78838;SDS011;68405;47.190;27.558;2023-05-14T12:04:50;5.90;;;2.80;;
78838;SDS011;68405;47.190;27.558;2023-05-14T12:07:22;2.80;;;1.80;;
78838;SDS011;68405;47.190;27.558;2023-05-14T12:09:59;2.80;;;1.80;;
78838;SDS011;68405;47.190;27.558;2023-05-14T12:12:35;5.50;;;2.40;;
78838;SDS011;68405;47.190;27.558;2023-05-14T12:15:11;3.90;;;2.40;;
78838;SDS011;68405;47.190;27.558;2023-05-14T12:17:50;5.70;;;2.50;;
78838;SDS011;68405;47.190;27.558;2023-05-14T12:20:22;4.30;;;2.40;;
78838;SDS011;68405;47.190;27.558;2023-05-14T12:22:55;3.10;;;2.40;;
78838;SDS011;68405;47.190;27.558;2023-05-14T12:25:27;4.20;;;1.80;;
78838;SDS011;68405;47.190;27.558;2023-05-14T12:27:59;5.00;;;2.40;;
78838;SDS011;68405;47.190;27.558;2023-05-14T12:30:37;3.80;;;1.80;;
78838;SDS011;68405;47.190;27.558;2023-05-14T12:33:09;3.00;;;2.30;;
78838;SDS011;68405;47.190;27.558;2023-05-14T12:35:41;2.40;;;1.70;;
78838;SDS011;68405;47.190;27.558;2023-05-14T12:38:14;3.10;;;2.00;;
78838;SDS011;68405;47.190;27.558;2023-05-14T12:40:46;6.30;;;2.00;;
78838;SDS011;68405;47.190;27.558;2023-05-14T12:43:18;5.70;;;2.60;;
78838;SDS011;68405;47.190;27.558;2023-05-14T12:45:50;5.30;;;2.10;;
78838;SDS011;68405;47.190;27.558;2023-05-14T12:48:21;3.20;;;2.40;;
78838;SDS011;68405;47.190;27.558;2023-05-14T12:50:53;3.00;;;1.90;;
78838;SDS011;68405;47.190;27.558;2023-05-14T12:53:25;4.20;;;1.90;;
78838;SDS011;68405;47.190;27.558;2023-05-14T12:55:56;3.70;;;2.20;;
78838;SDS011;68405;47.190;27.558;2023-05-14T12:58:29;3.70;;;2.10;;
78838;SDS011;68405;47.190;27.558;2023-05-14T13:01:00;4.00;;;2.60;;
78838;SDS011;68405;47.190;27.558;2023-05-14T13:03:33;3.70;;;1.70;;
78838;SDS011;68405;47.190;27.558;2023-05-14T13:06:05;15.20;;;2.70;;
78838;SDS011;68405;47.190;27.558;2023-05-14T13:08:37;4.90;;;2.20;;
78838;SDS011;68405;47.190;27.558;2023-05-14T13:11:09;5.50;;;2.90;;
78838;SDS011;68405;47.190;27.558;2023-05-14T13:13:40;2.90;;;2.10;;
78838;SDS011;68405;47.190;27.558;2023-05-14T13:16:13;4.40;;;2.20;;
78838;SDS011;68405;47.190;27.558;2023-05-14T13:18:45;5.20;;;3.10;;
78838;SDS011;68405;47.190;27.558;2023-05-14T13:21:17;3.40;;;2.30;;
78838;SDS011;68405;47.190;27.558;2023-05-14T13:23:49;4.00;;;2.30;;
78838;SDS011;68405;47.190;27.558;2023-05-14T13:26:20;4.30;;;2.40;;
78838;SDS011;68405;47.190;27.558;2023-05-14T13:28:53;2.90;;;1.80;;
78838;SDS011;68405;47.190;27.558;2023-05-14T13:31:25;3.00;;;1.60;;
78838;SDS011;68405;47.190;27.558;2023-05-14T13:33:57;3.90;;;1.90;;
78838;SDS011;68405;47.190;27.558;2023-05-14T13:36:29;3.30;;;2.40;;
78838;SDS011;68405;47.190;27.558;2023-05-14T13:39:07;4.00;;;2.40;;
78838;SDS011;68405;47.190;27.558;2023-05-14T13:41:40;1.90;;;1.40;;
78838;SDS011;68405;47.190;27.558;2023-05-14T13:44:12;2.80;;;1.90;;
78838;SDS011;68405;47.190;27.558;2023-05-14T13:46:43;3.50;;;1.80;;
78838;SDS011;68405;47.190;27.558;2023-05-14T13:49:15;3.70;;;2.40;;
78838;SDS011;68405;47.190;27.558;2023-05-14T13:51:47;6.90;;;3.00;;
78838;SDS011;68405;47.190;27.558;2023-05-14T13:54:19;3.00;;;2.30;;
78838;SDS011;68405;47.190;27.558;2023-05-14T13:56:51;2.90;;;2.10;;
78838;SDS011;68405;47.190;27.558;2023-05-14T13:59:23;5.60;;;2.30;;
78838;SDS011;68405;47.190;27.558;2023-05-14T14:01:55;5.60;;;2.20;;
78838;SDS011;68405;47.190;27.558;2023-05-14T14:04:27;5.40;;;1.80;;
78838;SDS011;68405;47.190;27.558;2023-05-14T14:06:59;4.00;;;1.80;;
78838;SDS011;68405;47.190;27.558;2023-05-14T14:09:31;4.40;;;1.90;;
78838;SDS011;68405;47.190;27.558;2023-05-14T14:12:04;5.30;;;2.10;;
78838;SDS011;68405;47.190;27.558;2023-05-14T14:14:37;4.70;;;2.10;;
78838;SDS011;68405;47.190;27.558;2023-05-14T14:17:09;2.40;;;2.00;;
78838;SDS011;68405;47.190;27.558;2023-05-14T14:19:40;2.80;;;2.10;;
78838;SDS011;68405;47.190;27.558;2023-05-14T14:22:12;2.20;;;1.80;;
78838;SDS011;68405;47.190;27.558;2023-05-14T14:24:44;4.80;;;2.00;;
78838;SDS011;68405;47.190;27.558;2023-05-14T14:27:16;4.20;;;2.10;;
78838;SDS011;68405;47.190;27.558;2023-05-14T14:29:48;3.10;;;1.80;;
78838;SDS011;68405;47.190;27.558;2023-05-14T14:32:19;4.20;;;1.80;;
78838;SDS011;68405;47.190;27.558;2023-05-14T14:34:51;4.10;;;2.10;;
78838;SDS011;68405;47.190;27.558;2023-05-14T14:37:23;5.70;;;2.00;;
78838;SDS011;68405;47.190;27.558;2023-05-14T14:39:55;2.00;;;1.50;;
78838;SDS011;68405;47.190;27.558;2023-05-14T14:42:27;2.40;;;2.00;;
78838;SDS011;68405;47.190;27.558;2023-05-14T14:44:58;4.70;;;2.20;;
78838;SDS011;68405;47.190;27.558;2023-05-14T14:47:30;2.90;;;2.00;;
78838;SDS011;68405;47.190;27.558;2023-05-14T14:50:02;1.90;;;1.40;;
78838;SDS011;68405;47.190;27.558;2023-05-14T14:52:35;2.40;;;1.70;;
78838;SDS011;68405;47.190;27.558;2023-05-14T14:55:08;2.80;;;1.50;;
78838;SDS011;68405;47.190;27.558;2023-05-14T14:57:40;4.10;;;1.90;;
78838;SDS011;68405;47.190;27.558;2023-05-14T15:00:14;2.80;;;1.90;;
78838;SDS011;68405;47.190;27.558;2023-05-14T15:02:47;7.40;;;2.30;;
78838;SDS011;68405;47.190;27.558;2023-05-14T15:05:19;3.50;;;1.90;;
78838;SDS011;68405;47.190;27.558;2023-05-14T15:07:50;2.80;;;2.00;;
78838;SDS011;68405;47.190;27.558;2023-05-14T15:10:22;3.70;;;1.80;;
78838;SDS011;68405;47.190;27.558;2023-05-14T15:12:56;4.30;;;2.00;;
78838;SDS011;68405;47.190;27.558;2023-05-14T15:15:28;3.60;;;1.60;;
78838;SDS011;68405;47.190;27.558;2023-05-14T15:20:32;3.40;;;1.90;;
78838;SDS011;68405;47.190;27.558;2023-05-14T15:23:04;4.30;;;2.20;;
78838;SDS011;68405;47.190;27.558;2023-05-14T15:25:36;3.10;;;2.00;;